sensor_id;sensor_type;location;lat;lon;timestamp;P1;durP1;ratioP1;P2;durP2;ratioP2
3841;SDS011;1936;47.074;15.336;2024-01-07T00:01:36;0.60;;;0.52;;
3841;SDS011;1936;47.074;15.336;2024-01-07T00:03:40;0.75;;;0.40;;
3841;SDS011;1936;47.074;15.336;2024-01-07T00:05:44;0.85;;;0.50;;
3841;SDS011;1936;47.074;15.336;2024-01-07T00:07:48;0.60;;;0.40;;
3841;SDS011;1936;47.074;15.336;2024-01-07T00:09:52;1.02;;;0.80;;
3841;SDS011;1936;47.074;15.336;2024-01-07T00:11:56;1.58;;;0.60;;
3841;SDS011;1936;47.074;15.336;2024-01-07T00:14:00;1.83;;;0.50;;
3841;SDS011;1936;47.074;15.336;2024-01-07T00:16:04;1.90;;;0.77;;
3841;SDS011;1936;47.074;15.336;2024-01-07T00:18:07;0.57;;;0.40;;
3841;SDS011;1936;47.074;15.336;2024-01-07T00:20:10;0.70;;;0.50;;
3841;SDS011;1936;47.074;15.336;2024-01-07T00:22:13;0.80;;;0.38;;
3841;SDS011;1936;47.074;15.336;2024-01-07T00:24:16;0.80;;;0.45;;
3841;SDS011;1936;47.074;15.336;2024-01-07T00:26:20;0.70;;;0.45;;
3841;SDS011;1936;47.074;15.336;2024-01-07T00:28:22;0.50;;;0.30;;
3841;SDS011;1936;47.074;15.336;2024-01-07T00:30:27;0.93;;;0.63;;
3841;SDS011;1936;47.074;15.336;2024-01-07T00:32:31;0.80;;;0.50;;
3841;SDS011;1936;47.074;15.336;2024-01-07T00:34:34;0.50;;;0.40;;
3841;SDS011;1936;47.074;15.336;2024-01-07T00:36:37;1.50;;;0.47;;
3841;SDS011;1936;47.074;15.336;2024-01-07T00:38:41;0.70;;;0.50;;
3841;SDS011;1936;47.074;15.336;2024-01-07T00:40:44;3.88;;;0.57;;
3841;SDS011;1936;47.074;15.336;2024-01-07T00:42:48;3.25;;;0.50;;
3841;SDS011;1936;47.074;15.336;2024-01-07T00:44:52;0.70;;;0.40;;
3841;SDS011;1936;47.074;15.336;2024-01-07T00:47:01;0.60;;;0.40;;
3841;SDS011;1936;47.074;15.336;2024-01-07T00:49:05;0.60;;;0.40;;
3841;SDS011;1936;47.074;15.336;2024-01-07T00:51:10;0.50;;;0.40;;
3841;SDS011;1936;47.074;15.336;2024-01-07T00:53:13;0.40;;;0.32;;
3841;SDS011;1936;47.074;15.336;2024-01-07T00:55:17;0.40;;;0.40;;
3841;SDS011;1936;47.074;15.336;2024-01-07T00:57:20;0.50;;;0.40;;
3841;SDS011;1936;47.074;15.336;2024-01-07T00:59:24;0.93;;;0.43;;
3841;SDS011;1936;47.074;15.336;2024-01-07T01:01:31;0.52;;;0.40;;
3841;SDS011;1936;47.074;15.336;2024-01-07T01:03:34;0.50;;;0.40;;
3841;SDS011;1936;47.074;15.336;2024-01-07T01:05:38;0.50;;;0.40;;
3841;SDS011;1936;47.074;15.336;2024-01-07T01:10:10;0.50;;;0.40;;
3841;SDS011;1936;47.074;15.336;2024-01-07T01:12:17;0.50;;;0.40;;
3841;SDS011;1936;47.074;15.336;2024-01-07T01:14:20;0.80;;;0.50;;
3841;SDS011;1936;47.074;15.336;2024-01-07T01:16:24;0.50;;;0.50;;
3841;SDS011;1936;47.074;15.336;2024-01-07T01:18:28;0.50;;;0.38;;
3841;SDS011;1936;47.074;15.336;2024-01-07T01:20:33;0.80;;;0.50;;
3841;SDS011;1936;47.074;15.336;2024-01-07T01:22:36;0.70;;;0.50;;
3841;SDS011;1936;47.074;15.336;2024-01-07T01:24:39;0.50;;;0.40;;
3841;SDS011;1936;47.074;15.336;2024-01-07T01:26:43;1.58;;;0.40;;
3841;SDS011;1936;47.074;15.336;2024-01-07T01:28:47;0.57;;;0.40;;
3841;SDS011;1936;47.074;15.336;2024-01-07T01:30:50;0.50;;;0.40;;
3841;SDS011;1936;47.074;15.336;2024-01-07T01:32:54;0.60;;;0.40;;
3841;SDS011;1936;47.074;15.336;2024-01-07T01:34:57;1.00;;;0.43;;
3841;SDS011;1936;47.074;15.336;2024-01-07T01:37:02;0.57;;;0.38;;
3841;SDS011;1936;47.074;15.336;2024-01-07T01:39:06;0.50;;;0.47;;
3841;SDS011;1936;47.074;15.336;2024-01-07T01:41:09;1.40;;;0.40;;
3841;SDS011;1936;47.074;15.336;2024-01-07T01:43:16;0.50;;;0.40;;
3841;SDS011;1936;47.074;15.336;2024-01-07T01:45:24;0.50;;;0.30;;
3841;SDS011;1936;47.074;15.336;2024-01-07T01:47:28;0.52;;;0.40;;
3841;SDS011;1936;47.074;15.336;2024-01-07T01:49:31;0.70;;;0.50;;
3841;SDS011;1936;47.074;15.336;2024-01-07T01:51:37;0.60;;;0.43;;
3841;SDS011;1936;47.074;15.336;2024-01-07T01:53:42;0.50;;;0.40;;
3841;SDS011;1936;47.074;15.336;2024-01-07T01:55:45;0.50;;;0.50;;
3841;SDS011;1936;47.074;15.336;2024-01-07T01:57:49;0.60;;;0.40;;
3841;SDS011;1936;47.074;15.336;2024-01-07T02:02:26;0.40;;;0.30;;
3841;SDS011;1936;47.074;15.336;2024-01-07T02:04:31;0.98;;;0.43;;
3841;SDS011;1936;47.074;15.336;2024-01-07T02:06:39;1.65;;;0.60;;
3841;SDS011;1936;47.074;15.336;2024-01-07T02:08:51;0.90;;;0.50;;
3841;SDS011;1936;47.074;15.336;2024-01-07T02:10:55;0.47;;;0.40;;
3841;SDS011;1936;47.074;15.336;2024-01-07T02:13:01;0.50;;;0.40;;
3841;SDS011;1936;47.074;15.336;2024-01-07T02:15:11;0.50;;;0.50;;
3841;SDS011;1936;47.074;15.336;2024-01-07T02:17:18;0.50;;;0.43;;
3841;SDS011;1936;47.074;15.336;2024-01-07T02:19:25;3.25;;;0.60;;
3841;SDS011;1936;47.074;15.336;2024-01-07T02:21:30;0.63;;;0.40;;
3841;SDS011;1936;47.074;15.336;2024-01-07T02:23:36;0.60;;;0.38;;
3841;SDS011;1936;47.074;15.336;2024-01-07T02:25:50;0.63;;;0.40;;
3841;SDS011;1936;47.074;15.336;2024-01-07T02:27:57;0.60;;;0.40;;
3841;SDS011;1936;47.074;15.336;2024-01-07T02:30:00;0.60;;;0.50;;
3841;SDS011;1936;47.074;15.336;2024-01-07T02:32:05;0.60;;;0.40;;
3841;SDS011;1936;47.074;15.336;2024-01-07T02:34:09;0.60;;;0.43;;
3841;SDS011;1936;47.074;15.336;2024-01-07T02:36:15;0.50;;;0.50;;
3841;SDS011;1936;47.074;15.336;2024-01-07T02:38:31;0.88;;;0.60;;
3841;SDS011;1936;47.074;15.336;2024-01-07T02:40:35;0.65;;;0.40;;
3841;SDS011;1936;47.074;15.336;2024-01-07T02:42:40;0.70;;;0.50;;
3841;SDS011;1936;47.074;15.336;2024-01-07T02:44:46;0.47;;;0.32;;
3841;SDS011;1936;47.074;15.336;2024-01-07T02:47:00;0.80;;;0.45;;
3841;SDS011;1936;47.074;15.336;2024-01-07T02:49:12;0.80;;;0.50;;
3841;SDS011;1936;47.074;15.336;2024-01-07T02:51:18;0.60;;;0.43;;
3841;SDS011;1936;47.074;15.336;2024-01-07T02:53:25;0.73;;;0.57;;
3841;SDS011;1936;47.074;15.336;2024-01-07T02:55:37;1.20;;;0.50;;
3841;SDS011;1936;47.074;15.336;2024-01-07T02:57:42;0.50;;;0.40;;
3841;SDS011;1936;47.074;15.336;2024-01-07T02:59:46;0.40;;;0.32;;
3841;SDS011;1936;47.074;15.336;2024-01-07T03:01:53;1.20;;;0.50;;
3841;SDS011;1936;47.074;15.336;2024-01-07T03:03:58;0.50;;;0.40;;
3841;SDS011;1936;47.074;15.336;2024-01-07T03:06:01;0.60;;;0.50;;
3841;SDS011;1936;47.074;15.336;2024-01-07T03:08:15;0.50;;;0.40;;
3841;SDS011;1936;47.074;15.336;2024-01-07T03:10:23;0.60;;;0.40;;
3841;SDS011;1936;47.074;15.336;2024-01-07T03:12:30;0.45;;;0.38;;
3841;SDS011;1936;47.074;15.336;2024-01-07T03:14:37;0.82;;;0.40;;
3841;SDS011;1936;47.074;15.336;2024-01-07T03:16:43;0.50;;;0.40;;
3841;SDS011;1936;47.074;15.336;2024-01-07T03:19:03;0.57;;;0.40;;
3841;SDS011;1936;47.074;15.336;2024-01-07T03:21:12;0.50;;;0.45;;
3841;SDS011;1936;47.074;15.336;2024-01-07T03:23:19;0.57;;;0.50;;
3841;SDS011;1936;47.074;15.336;2024-01-07T03:27:45;0.55;;;0.43;;
3841;SDS011;1936;47.074;15.336;2024-01-07T03:30:06;1.10;;;0.40;;
3841;SDS011;1936;47.074;15.336;2024-01-07T03:32:17;0.80;;;0.50;;
3841;SDS011;1936;47.074;15.336;2024-01-07T03:34:20;0.57;;;0.40;;
3841;SDS011;1936;47.074;15.336;2024-01-07T03:36:29;0.70;;;0.45;;
3841;SDS011;1936;47.074;15.336;2024-01-07T03:38:32;1.45;;;0.50;;
3841;SDS011;1936;47.074;15.336;2024-01-07T03:40:36;0.60;;;0.40;;
3841;SDS011;1936;47.074;15.336;2024-01-07T03:42:43;0.90;;;0.40;;
3841;SDS011;1936;47.074;15.336;2024-01-07T03:44:46;0.70;;;0.55;;
3841;SDS011;1936;47.074;15.336;2024-01-07T03:46:53;0.63;;;0.52;;
3841;SDS011;1936;47.074;15.336;2024-01-07T03:49:01;1.13;;;1.02;;
3841;SDS011;1936;47.074;15.336;2024-01-07T03:51:05;0.98;;;0.60;;
3841;SDS011;1936;47.074;15.336;2024-01-07T03:53:08;0.70;;;0.40;;
3841;SDS011;1936;47.074;15.336;2024-01-07T03:55:13;0.63;;;0.50;;
3841;SDS011;1936;47.074;15.336;2024-01-07T03:57:22;1.13;;;0.60;;
3841;SDS011;1936;47.074;15.336;2024-01-07T03:59:26;0.50;;;0.40;;
3841;SDS011;1936;47.074;15.336;2024-01-07T04:01:30;0.70;;;0.50;;
3841;SDS011;1936;47.074;15.336;2024-01-07T04:03:38;0.88;;;0.50;;
3841;SDS011;1936;47.074;15.336;2024-01-07T04:05:41;1.10;;;0.63;;
3841;SDS011;1936;47.074;15.336;2024-01-07T04:07:46;0.75;;;0.65;;
3841;SDS011;1936;47.074;15.336;2024-01-07T04:12:19;0.50;;;0.50;;
3841;SDS011;1936;47.074;15.336;2024-01-07T04:14:22;0.70;;;0.55;;
3841;SDS011;1936;47.074;15.336;2024-01-07T04:16:29;1.30;;;0.45;;
3841;SDS011;1936;47.074;15.336;2024-01-07T04:18:32;0.90;;;0.60;;
3841;SDS011;1936;47.074;15.336;2024-01-07T04:20:43;0.50;;;0.40;;
3841;SDS011;1936;47.074;15.336;2024-01-07T04:22:47;0.80;;;0.40;;
3841;SDS011;1936;47.074;15.336;2024-01-07T04:25:12;1.00;;;0.60;;
3841;SDS011;1936;47.074;15.336;2024-01-07T04:27:18;0.60;;;0.50;;
3841;SDS011;1936;47.074;15.336;2024-01-07T04:29:25;0.60;;;0.50;;
3841;SDS011;1936;47.074;15.336;2024-01-07T04:31:40;0.70;;;0.60;;
3841;SDS011;1936;47.074;15.336;2024-01-07T04:33:51;0.50;;;0.40;;
3841;SDS011;1936;47.074;15.336;2024-01-07T04:36:05;0.60;;;0.40;;
3841;SDS011;1936;47.074;15.336;2024-01-07T04:38:17;0.65;;;0.50;;
3841;SDS011;1936;47.074;15.336;2024-01-07T04:40:33;0.52;;;0.50;;
3841;SDS011;1936;47.074;15.336;2024-01-07T04:42:49;1.85;;;0.70;;
3841;SDS011;1936;47.074;15.336;2024-01-07T04:44:53;0.70;;;0.60;;
3841;SDS011;1936;47.074;15.336;2024-01-07T04:46:57;0.70;;;0.60;;
3841;SDS011;1936;47.074;15.336;2024-01-07T04:49:02;1.00;;;0.75;;
3841;SDS011;1936;47.074;15.336;2024-01-07T04:51:07;1.70;;;0.60;;
3841;SDS011;1936;47.074;15.336;2024-01-07T04:53:11;0.68;;;0.52;;
3841;SDS011;1936;47.074;15.336;2024-01-07T04:55:14;1.80;;;0.63;;
3841;SDS011;1936;47.074;15.336;2024-01-07T04:57:20;0.50;;;0.40;;
3841;SDS011;1936;47.074;15.336;2024-01-07T04:59:24;0.55;;;0.40;;
3841;SDS011;1936;47.074;15.336;2024-01-07T05:01:28;0.68;;;0.50;;
3841;SDS011;1936;47.074;15.336;2024-01-07T05:03:31;1.60;;;0.50;;
3841;SDS011;1936;47.074;15.336;2024-01-07T05:06:04;3.17;;;0.85;;
3841;SDS011;1936;47.074;15.336;2024-01-07T05:08:26;0.50;;;0.40;;
3841;SDS011;1936;47.074;15.336;2024-01-07T05:10:30;0.60;;;0.40;;
3841;SDS011;1936;47.074;15.336;2024-01-07T05:12:34;0.70;;;0.60;;
3841;SDS011;1936;47.074;15.336;2024-01-07T05:14:37;1.23;;;0.43;;
3841;SDS011;1936;47.074;15.336;2024-01-07T05:16:41;0.60;;;0.60;;
3841;SDS011;1936;47.074;15.336;2024-01-07T05:18:44;0.70;;;0.60;;
3841;SDS011;1936;47.074;15.336;2024-01-07T05:20:50;1.92;;;0.68;;
3841;SDS011;1936;47.074;15.336;2024-01-07T05:22:55;1.02;;;0.50;;
3841;SDS011;1936;47.074;15.336;2024-01-07T05:24:58;0.75;;;0.57;;
3841;SDS011;1936;47.074;15.336;2024-01-07T05:27:02;1.10;;;0.60;;
3841;SDS011;1936;47.074;15.336;2024-01-07T05:29:06;2.35;;;0.50;;
3841;SDS011;1936;47.074;15.336;2024-01-07T05:31:13;1.27;;;0.60;;
3841;SDS011;1936;47.074;15.336;2024-01-07T05:33:17;1.48;;;0.65;;
3841;SDS011;1936;47.074;15.336;2024-01-07T05:35:21;4.47;;;0.60;;
3841;SDS011;1936;47.074;15.336;2024-01-07T05:37:24;1.05;;;0.90;;
3841;SDS011;1936;47.074;15.336;2024-01-07T05:39:29;1.88;;;0.60;;
3841;SDS011;1936;47.074;15.336;2024-01-07T05:41:32;0.93;;;0.57;;
3841;SDS011;1936;47.074;15.336;2024-01-07T05:43:36;1.35;;;0.60;;
3841;SDS011;1936;47.074;15.336;2024-01-07T05:45:39;0.80;;;0.60;;
3841;SDS011;1936;47.074;15.336;2024-01-07T05:47:44;0.70;;;0.60;;
3841;SDS011;1936;47.074;15.336;2024-01-07T05:49:47;1.75;;;0.75;;
3841;SDS011;1936;47.074;15.336;2024-01-07T05:51:54;1.00;;;0.90;;
3841;SDS011;1936;47.074;15.336;2024-01-07T05:53:57;1.27;;;1.17;;
3841;SDS011;1936;47.074;15.336;2024-01-07T05:56:02;0.98;;;0.50;;
3841;SDS011;1936;47.074;15.336;2024-01-07T05:58:06;0.90;;;0.60;;
3841;SDS011;1936;47.074;15.336;2024-01-07T06:00:10;0.70;;;0.70;;
3841;SDS011;1936;47.074;15.336;2024-01-07T06:02:15;0.50;;;0.50;;
3841;SDS011;1936;47.074;15.336;2024-01-07T06:04:17;0.90;;;0.80;;
3841;SDS011;1936;47.074;15.336;2024-01-07T06:06:21;1.13;;;0.70;;
3841;SDS011;1936;47.074;15.336;2024-01-07T06:08:25;0.65;;;0.50;;
3841;SDS011;1936;47.074;15.336;2024-01-07T06:10:28;0.90;;;0.50;;
3841;SDS011;1936;47.074;15.336;2024-01-07T06:12:33;1.85;;;0.50;;
3841;SDS011;1936;47.074;15.336;2024-01-07T06:14:36;1.48;;;1.38;;
3841;SDS011;1936;47.074;15.336;2024-01-07T06:16:40;3.28;;;0.90;;
3841;SDS011;1936;47.074;15.336;2024-01-07T06:18:43;0.40;;;0.40;;
3841;SDS011;1936;47.074;15.336;2024-01-07T06:20:47;0.75;;;0.60;;
3841;SDS011;1936;47.074;15.336;2024-01-07T06:22:50;1.08;;;0.50;;
3841;SDS011;1936;47.074;15.336;2024-01-07T06:24:52;0.90;;;0.50;;
3841;SDS011;1936;47.074;15.336;2024-01-07T06:29:34;1.13;;;0.70;;
3841;SDS011;1936;47.074;15.336;2024-01-07T06:31:42;0.60;;;0.55;;
3841;SDS011;1936;47.074;15.336;2024-01-07T06:33:47;0.95;;;0.57;;
3841;SDS011;1936;47.074;15.336;2024-01-07T06:35:49;0.60;;;0.50;;
3841;SDS011;1936;47.074;15.336;2024-01-07T06:37:53;0.50;;;0.50;;
3841;SDS011;1936;47.074;15.336;2024-01-07T06:39:55;0.60;;;0.50;;
3841;SDS011;1936;47.074;15.336;2024-01-07T06:41:59;0.93;;;0.60;;
3841;SDS011;1936;47.074;15.336;2024-01-07T06:44:03;0.60;;;0.60;;
3841;SDS011;1936;47.074;15.336;2024-01-07T06:46:08;0.75;;;0.70;;
3841;SDS011;1936;47.074;15.336;2024-01-07T06:48:11;0.52;;;0.40;;
3841;SDS011;1936;47.074;15.336;2024-01-07T06:50:15;0.60;;;0.60;;
3841;SDS011;1936;47.074;15.336;2024-01-07T06:52:21;0.90;;;0.50;;
3841;SDS011;1936;47.074;15.336;2024-01-07T06:54:25;1.30;;;0.90;;
3841;SDS011;1936;47.074;15.336;2024-01-07T06:56:28;0.75;;;0.65;;
3841;SDS011;1936;47.074;15.336;2024-01-07T06:58:32;0.75;;;0.50;;
3841;SDS011;1936;47.074;15.336;2024-01-07T07:00:34;1.10;;;0.60;;
3841;SDS011;1936;47.074;15.336;2024-01-07T07:02:39;0.90;;;0.65;;
3841;SDS011;1936;47.074;15.336;2024-01-07T07:04:42;0.60;;;0.55;;
3841;SDS011;1936;47.074;15.336;2024-01-07T07:06:47;1.02;;;0.70;;
3841;SDS011;1936;47.074;15.336;2024-01-07T07:08:51;1.10;;;0.70;;
3841;SDS011;1936;47.074;15.336;2024-01-07T07:10:54;1.05;;;0.60;;
3841;SDS011;1936;47.074;15.336;2024-01-07T07:12:57;0.60;;;0.60;;
3841;SDS011;1936;47.074;15.336;2024-01-07T07:15:01;1.00;;;0.70;;
3841;SDS011;1936;47.074;15.336;2024-01-07T07:17:05;1.70;;;0.50;;
3841;SDS011;1936;47.074;15.336;2024-01-07T07:19:09;2.05;;;0.50;;
3841;SDS011;1936;47.074;15.336;2024-01-07T07:21:16;0.82;;;0.60;;
3841;SDS011;1936;47.074;15.336;2024-01-07T07:23:19;0.90;;;0.50;;
3841;SDS011;1936;47.074;15.336;2024-01-07T07:25:23;0.98;;;0.40;;
3841;SDS011;1936;47.074;15.336;2024-01-07T07:27:26;0.70;;;0.57;;
3841;SDS011;1936;47.074;15.336;2024-01-07T07:29:29;0.50;;;0.50;;
3841;SDS011;1936;47.074;15.336;2024-01-07T07:31:33;0.80;;;0.50;;
3841;SDS011;1936;47.074;15.336;2024-01-07T07:33:35;0.80;;;0.55;;
3841;SDS011;1936;47.074;15.336;2024-01-07T07:35:42;1.13;;;0.75;;
3841;SDS011;1936;47.074;15.336;2024-01-07T07:37:46;1.00;;;0.60;;
3841;SDS011;1936;47.074;15.336;2024-01-07T07:39:49;0.50;;;0.50;;
3841;SDS011;1936;47.074;15.336;2024-01-07T07:41:53;0.80;;;0.50;;
3841;SDS011;1936;47.074;15.336;2024-01-07T07:43:56;0.95;;;0.68;;
3841;SDS011;1936;47.074;15.336;2024-01-07T07:46:00;2.90;;;0.82;;
3841;SDS011;1936;47.074;15.336;2024-01-07T07:48:05;0.80;;;0.63;;
3841;SDS011;1936;47.074;15.336;2024-01-07T07:50:09;0.82;;;0.60;;
3841;SDS011;1936;47.074;15.336;2024-01-07T07:52:14;0.88;;;0.60;;
3841;SDS011;1936;47.074;15.336;2024-01-07T07:54:23;0.50;;;0.45;;
3841;SDS011;1936;47.074;15.336;2024-01-07T07:56:29;1.13;;;0.85;;
3841;SDS011;1936;47.074;15.336;2024-01-07T07:58:32;0.50;;;0.40;;
3841;SDS011;1936;47.074;15.336;2024-01-07T08:00:35;0.95;;;0.55;;
3841;SDS011;1936;47.074;15.336;2024-01-07T08:02:40;0.95;;;0.80;;
3841;SDS011;1936;47.074;15.336;2024-01-07T08:04:44;1.75;;;1.20;;
3841;SDS011;1936;47.074;15.336;2024-01-07T08:06:46;2.20;;;0.80;;
3841;SDS011;1936;47.074;15.336;2024-01-07T08:08:51;1.40;;;1.05;;
3841;SDS011;1936;47.074;15.336;2024-01-07T08:10:55;1.50;;;0.70;;
3841;SDS011;1936;47.074;15.336;2024-01-07T08:12:58;0.70;;;0.43;;
3841;SDS011;1936;47.074;15.336;2024-01-07T08:15:01;1.17;;;0.50;;
3841;SDS011;1936;47.074;15.336;2024-01-07T08:17:04;0.90;;;0.60;;
3841;SDS011;1936;47.074;15.336;2024-01-07T08:19:07;1.23;;;0.75;;
3841;SDS011;1936;47.074;15.336;2024-01-07T08:21:11;1.00;;;1.00;;
3841;SDS011;1936;47.074;15.336;2024-01-07T08:23:15;1.05;;;0.75;;
3841;SDS011;1936;47.074;15.336;2024-01-07T08:25:20;0.77;;;0.60;;
3841;SDS011;1936;47.074;15.336;2024-01-07T08:27:24;1.48;;;0.70;;
3841;SDS011;1936;47.074;15.336;2024-01-07T08:29:30;1.40;;;0.85;;
3841;SDS011;1936;47.074;15.336;2024-01-07T08:31:34;1.50;;;0.90;;
3841;SDS011;1936;47.074;15.336;2024-01-07T08:33:37;0.88;;;0.70;;
3841;SDS011;1936;47.074;15.336;2024-01-07T08:35:41;0.60;;;0.55;;
3841;SDS011;1936;47.074;15.336;2024-01-07T08:37:44;0.80;;;0.68;;
3841;SDS011;1936;47.074;15.336;2024-01-07T08:39:48;1.55;;;0.70;;
3841;SDS011;1936;47.074;15.336;2024-01-07T08:41:52;1.23;;;0.60;;
3841;SDS011;1936;47.074;15.336;2024-01-07T08:43:56;1.60;;;1.15;;
3841;SDS011;1936;47.074;15.336;2024-01-07T08:45:59;0.88;;;0.57;;
3841;SDS011;1936;47.074;15.336;2024-01-07T08:48:02;0.95;;;0.70;;
3841;SDS011;1936;47.074;15.336;2024-01-07T08:50:06;1.80;;;0.63;;
3841;SDS011;1936;47.074;15.336;2024-01-07T08:52:09;0.68;;;0.68;;
3841;SDS011;1936;47.074;15.336;2024-01-07T08:54:13;1.05;;;0.98;;
3841;SDS011;1936;47.074;15.336;2024-01-07T08:56:16;0.80;;;0.60;;
3841;SDS011;1936;47.074;15.336;2024-01-07T08:58:21;1.02;;;0.93;;
3841;SDS011;1936;47.074;15.336;2024-01-07T09:00:24;0.80;;;0.50;;
3841;SDS011;1936;47.074;15.336;2024-01-07T09:02:32;0.73;;;0.60;;
3841;SDS011;1936;47.074;15.336;2024-01-07T09:04:41;0.70;;;0.68;;
3841;SDS011;1936;47.074;15.336;2024-01-07T09:06:44;1.00;;;0.90;;
3841;SDS011;1936;47.074;15.336;2024-01-07T09:08:48;2.13;;;0.90;;
3841;SDS011;1936;47.074;15.336;2024-01-07T09:10:51;1.52;;;0.60;;
3841;SDS011;1936;47.074;15.336;2024-01-07T09:12:55;1.00;;;0.80;;
3841;SDS011;1936;47.074;15.336;2024-01-07T09:14:59;1.40;;;0.90;;
3841;SDS011;1936;47.074;15.336;2024-01-07T09:17:03;1.17;;;0.80;;
3841;SDS011;1936;47.074;15.336;2024-01-07T09:19:06;2.78;;;1.00;;
3841;SDS011;1936;47.074;15.336;2024-01-07T09:21:14;1.70;;;0.80;;
3841;SDS011;1936;47.074;15.336;2024-01-07T09:23:18;0.73;;;0.52;;
3841;SDS011;1936;47.074;15.336;2024-01-07T09:25:21;1.30;;;0.73;;
3841;SDS011;1936;47.074;15.336;2024-01-07T09:27:24;1.20;;;0.50;;
3841;SDS011;1936;47.074;15.336;2024-01-07T09:29:27;1.70;;;1.00;;
3841;SDS011;1936;47.074;15.336;2024-01-07T09:31:31;2.67;;;1.00;;
3841;SDS011;1936;47.074;15.336;2024-01-07T09:33:35;0.70;;;0.50;;
3841;SDS011;1936;47.074;15.336;2024-01-07T09:35:39;1.00;;;0.68;;
3841;SDS011;1936;47.074;15.336;2024-01-07T09:37:42;0.60;;;0.60;;
3841;SDS011;1936;47.074;15.336;2024-01-07T09:39:46;0.65;;;0.60;;
3841;SDS011;1936;47.074;15.336;2024-01-07T09:41:49;1.05;;;0.82;;
3841;SDS011;1936;47.074;15.336;2024-01-07T09:43:53;1.00;;;0.80;;
3841;SDS011;1936;47.074;15.336;2024-01-07T09:45:59;0.80;;;0.75;;
3841;SDS011;1936;47.074;15.336;2024-01-07T09:48:04;0.60;;;0.45;;
3841;SDS011;1936;47.074;15.336;2024-01-07T09:50:09;0.70;;;0.70;;
3841;SDS011;1936;47.074;15.336;2024-01-07T09:52:12;3.58;;;0.95;;
3841;SDS011;1936;47.074;15.336;2024-01-07T09:54:16;0.68;;;0.52;;
3841;SDS011;1936;47.074;15.336;2024-01-07T09:56:23;1.25;;;0.70;;
3841;SDS011;1936;47.074;15.336;2024-01-07T09:58:28;0.80;;;0.60;;
3841;SDS011;1936;47.074;15.336;2024-01-07T10:00:31;3.05;;;1.23;;
3841;SDS011;1936;47.074;15.336;2024-01-07T10:02:35;1.05;;;0.80;;
3841;SDS011;1936;47.074;15.336;2024-01-07T10:04:43;2.25;;;1.20;;
3841;SDS011;1936;47.074;15.336;2024-01-07T10:06:49;2.28;;;1.00;;
3841;SDS011;1936;47.074;15.336;2024-01-07T10:08:51;1.13;;;0.50;;
3841;SDS011;1936;47.074;15.336;2024-01-07T10:10:54;0.55;;;0.50;;
3841;SDS011;1936;47.074;15.336;2024-01-07T10:12:58;1.10;;;0.70;;
3841;SDS011;1936;47.074;15.336;2024-01-07T10:15:02;1.23;;;0.65;;
3841;SDS011;1936;47.074;15.336;2024-01-07T10:17:11;0.85;;;0.60;;
3841;SDS011;1936;47.074;15.336;2024-01-07T10:19:19;1.40;;;0.75;;
3841;SDS011;1936;47.074;15.336;2024-01-07T10:21:25;0.95;;;0.82;;
3841;SDS011;1936;47.074;15.336;2024-01-07T10:23:29;0.68;;;0.60;;
3841;SDS011;1936;47.074;15.336;2024-01-07T10:25:32;1.70;;;1.00;;
3841;SDS011;1936;47.074;15.336;2024-01-07T10:27:36;0.82;;;0.70;;
3841;SDS011;1936;47.074;15.336;2024-01-07T10:29:40;1.15;;;0.85;;
3841;SDS011;1936;47.074;15.336;2024-01-07T10:31:43;0.82;;;0.60;;
3841;SDS011;1936;47.074;15.336;2024-01-07T10:33:47;0.70;;;0.68;;
3841;SDS011;1936;47.074;15.336;2024-01-07T10:35:51;0.82;;;0.80;;
3841;SDS011;1936;47.074;15.336;2024-01-07T10:38:00;1.20;;;0.85;;
3841;SDS011;1936;47.074;15.336;2024-01-07T10:40:04;3.85;;;1.05;;
3841;SDS011;1936;47.074;15.336;2024-01-07T10:42:08;1.15;;;0.95;;
3841;SDS011;1936;47.074;15.336;2024-01-07T10:44:13;3.10;;;0.90;;
3841;SDS011;1936;47.074;15.336;2024-01-07T10:46:20;1.05;;;0.70;;
3841;SDS011;1936;47.074;15.336;2024-01-07T10:48:24;1.70;;;0.90;;
3841;SDS011;1936;47.074;15.336;2024-01-07T10:50:31;1.10;;;0.90;;
3841;SDS011;1936;47.074;15.336;2024-01-07T10:52:35;1.65;;;0.90;;
3841;SDS011;1936;47.074;15.336;2024-01-07T10:54:43;1.35;;;0.85;;
3841;SDS011;1936;47.074;15.336;2024-01-07T10:56:50;1.20;;;0.52;;
3841;SDS011;1936;47.074;15.336;2024-01-07T10:58:57;1.80;;;0.85;;
3841;SDS011;1936;47.074;15.336;2024-01-07T11:01:01;0.70;;;0.70;;
3841;SDS011;1936;47.074;15.336;2024-01-07T11:03:07;2.03;;;1.23;;
3841;SDS011;1936;47.074;15.336;2024-01-07T11:07:45;0.70;;;0.70;;
3841;SDS011;1936;47.074;15.336;2024-01-07T11:10:05;1.40;;;1.02;;
3841;SDS011;1936;47.074;15.336;2024-01-07T11:12:13;0.98;;;0.88;;
3841;SDS011;1936;47.074;15.336;2024-01-07T11:14:34;1.35;;;0.85;;
3841;SDS011;1936;47.074;15.336;2024-01-07T11:16:41;0.63;;;0.63;;
3841;SDS011;1936;47.074;15.336;2024-01-07T11:18:46;0.93;;;0.82;;
3841;SDS011;1936;47.074;15.336;2024-01-07T11:23:26;0.90;;;0.60;;
3841;SDS011;1936;47.074;15.336;2024-01-07T11:25:31;1.25;;;1.15;;
3841;SDS011;1936;47.074;15.336;2024-01-07T11:27:36;1.50;;;1.30;;
3841;SDS011;1936;47.074;15.336;2024-01-07T11:29:40;0.77;;;0.60;;
3841;SDS011;1936;47.074;15.336;2024-01-07T11:31:43;1.38;;;1.00;;
3841;SDS011;1936;47.074;15.336;2024-01-07T11:33:49;1.00;;;0.90;;
3841;SDS011;1936;47.074;15.336;2024-01-07T11:35:53;1.00;;;0.85;;
3841;SDS011;1936;47.074;15.336;2024-01-07T11:37:57;1.60;;;0.82;;
3841;SDS011;1936;47.074;15.336;2024-01-07T11:40:03;1.17;;;1.00;;
3841;SDS011;1936;47.074;15.336;2024-01-07T11:42:09;0.70;;;0.60;;
3841;SDS011;1936;47.074;15.336;2024-01-07T11:44:14;2.45;;;0.80;;
3841;SDS011;1936;47.074;15.336;2024-01-07T11:49:08;1.05;;;0.75;;
3841;SDS011;1936;47.074;15.336;2024-01-07T11:51:12;1.10;;;0.73;;
3841;SDS011;1936;47.074;15.336;2024-01-07T11:53:16;1.20;;;0.98;;
3841;SDS011;1936;47.074;15.336;2024-01-07T11:55:19;2.50;;;1.33;;
3841;SDS011;1936;47.074;15.336;2024-01-07T11:57:27;1.10;;;0.80;;
3841;SDS011;1936;47.074;15.336;2024-01-07T11:59:41;0.80;;;0.60;;
3841;SDS011;1936;47.074;15.336;2024-01-07T12:01:46;1.80;;;0.90;;
3841;SDS011;1936;47.074;15.336;2024-01-07T12:03:50;2.78;;;1.30;;
3841;SDS011;1936;47.074;15.336;2024-01-07T12:05:53;1.58;;;1.20;;
3841;SDS011;1936;47.074;15.336;2024-01-07T12:07:57;3.67;;;1.75;;
3841;SDS011;1936;47.074;15.336;2024-01-07T12:10:03;1.73;;;1.35;;
3841;SDS011;1936;47.074;15.336;2024-01-07T12:12:08;1.50;;;1.23;;
3841;SDS011;1936;47.074;15.336;2024-01-07T12:14:13;1.30;;;1.15;;
3841;SDS011;1936;47.074;15.336;2024-01-07T12:16:17;0.93;;;0.82;;
3841;SDS011;1936;47.074;15.336;2024-01-07T12:18:21;1.27;;;0.77;;
3841;SDS011;1936;47.074;15.336;2024-01-07T12:20:27;1.92;;;1.48;;
3841;SDS011;1936;47.074;15.336;2024-01-07T12:22:30;1.58;;;0.93;;
3841;SDS011;1936;47.074;15.336;2024-01-07T12:24:33;2.55;;;1.85;;
3841;SDS011;1936;47.074;15.336;2024-01-07T12:26:37;1.67;;;0.90;;
3841;SDS011;1936;47.074;15.336;2024-01-07T12:28:40;2.40;;;1.25;;
3841;SDS011;1936;47.074;15.336;2024-01-07T12:30:46;3.78;;;1.08;;
3841;SDS011;1936;47.074;15.336;2024-01-07T12:33:19;0.80;;;0.80;;
3841;SDS011;1936;47.074;15.336;2024-01-07T12:35:24;1.17;;;0.90;;
3841;SDS011;1936;47.074;15.336;2024-01-07T12:37:28;3.63;;;2.00;;
3841;SDS011;1936;47.074;15.336;2024-01-07T12:39:30;4.72;;;1.73;;
3841;SDS011;1936;47.074;15.336;2024-01-07T12:41:34;2.42;;;1.48;;
3841;SDS011;1936;47.074;15.336;2024-01-07T12:43:37;1.15;;;1.02;;
3841;SDS011;1936;47.074;15.336;2024-01-07T12:45:40;1.13;;;1.02;;
3841;SDS011;1936;47.074;15.336;2024-01-07T12:47:46;1.33;;;1.20;;
3841;SDS011;1936;47.074;15.336;2024-01-07T12:49:49;2.25;;;1.60;;
3841;SDS011;1936;47.074;15.336;2024-01-07T12:51:52;1.60;;;1.13;;
3841;SDS011;1936;47.074;15.336;2024-01-07T12:53:56;2.67;;;1.15;;
3841;SDS011;1936;47.074;15.336;2024-01-07T12:56:04;2.70;;;1.20;;
3841;SDS011;1936;47.074;15.336;2024-01-07T12:58:08;1.25;;;0.70;;
3841;SDS011;1936;47.074;15.336;2024-01-07T13:00:11;1.55;;;1.10;;
3841;SDS011;1936;47.074;15.336;2024-01-07T13:02:15;2.30;;;1.35;;
3841;SDS011;1936;47.074;15.336;2024-01-07T13:04:19;1.58;;;1.02;;
3841;SDS011;1936;47.074;15.336;2024-01-07T13:06:23;1.25;;;0.88;;